Time;durP1;ratioP1;P1;durP2;ratioP2;P2;SDS_P1;SDS_P2;PMS_P1;PMS_P2;Temp;Humidity;BMP_temperature;BMP_pressure;BME280_temperature;BME280_humidity;BME280_pressure;Samples;Min_cycle;Max_cycle;Signal;HPM_P1;HPM_P2
2021/08/10 00:01:58;;;;;;;11.30;6.17;;;;;;;15.47;73.78;101088.03;1697840;82;25869;-78
2021/08/10 00:04:25;;;;;;;10.90;5.67;;;;;;;15.43;73.74;101094.37;1749164;79;26269;-77
2021/08/10 00:06:52;;;;;;;7.85;5.28;;;;;;;15.39;73.90;101086.34;1738458;80;25905;-78
2021/08/10 00:09:19;;;;;;;9.58;5.17;;;;;;;15.37;73.94;101087.08;1662747;82;25980;-78
2021/08/10 00:11:46;;;;;;;9.95;5.78;;;;;;;15.34;73.91;101099.62;1706662;81;27580;-77
2021/08/10 00:14:13;;;;;;;10.78;5.40;;;;;;;15.32;74.06;101096.30;1773300;80;26610;-78
2021/08/10 00:16:40;;;;;;;8.85;5.47;;;;;;;15.30;74.25;101091.63;1703427;82;26024;-77
2021/08/10 00:19:08;;;;;;;12.80;5.55;;;;;;;15.29;74.75;101088.09;1663131;82;25937;-78
2021/08/10 00:21:35;;;;;;;11.83;5.10;;;;;;;15.27;74.71;101085.27;1726441;80;25853;-77
2021/08/10 00:24:03;;;;;;;9.53;5.50;;;;;;;15.22;74.80;101081.88;1752467;81;27638;-78
2021/08/10 00:26:30;;;;;;;10.10;5.92;;;;;;;15.19;74.98;101084.13;1721605;80;25801;-78
2021/08/10 00:28:57;;;;;;;6.45;5.08;;;;;;;15.19;75.12;101089.52;1717273;80;26185;-78
2021/08/10 00:31:24;;;;;;;13.45;6.17;;;;;;;15.22;75.43;101095.36;1709297;81;25853;-78
2021/08/10 00:33:51;;;;;;;11.45;6.12;;;;;;;15.27;75.86;101088.81;1754749;81;25741;-78
2021/08/10 00:36:18;;;;;;;13.65;5.80;;;;;;;15.31;75.87;101086.02;1745546;79;27503;-78
2021/08/10 00:38:45;;;;;;;12.33;5.80;;;;;;;15.35;75.80;101089.16;1740663;80;27536;-78
2021/08/10 00:41:14;;;;;;;13.05;6.33;;;;;;;15.34;75.81;101087.47;1710897;79;25734;-78
2021/08/10 00:43:44;;;;;;;10.48;5.72;;;;;;;15.32;75.63;101093.09;1764353;79;26468;-77
2021/08/10 00:46:19;;;;;;;6.97;4.95;;;;;;;15.31;75.52;101090.60;1713609;79;25954;-78
2021/08/10 00:48:47;;;;;;;9.65;6.15;;;;;;;15.25;75.47;101081.44;1704616;79;27598;-78
2021/08/10 00:51:16;;;;;;;10.98;5.35;;;;;;;15.21;75.45;101082.89;1715781;79;25900;-78
2021/08/10 00:53:45;;;;;;;8.73;5.42;;;;;;;15.17;75.34;101085.69;1770894;79;25909;-78
2021/08/10 00:56:14;;;;;;;9.80;5.78;;;;;;;15.14;75.48;101086.62;1717943;79;26069;-78
2021/08/10 00:58:43;;;;;;;10.55;6.03;;;;;;;15.10;75.48;101086.19;1723978;80;26559;-77
2021/08/10 01:01:11;;;;;;;16.55;6.30;;;;;;;15.07;75.60;101089.82;1739441;79;27624;-78
2021/08/10 01:03:39;;;;;;;8.25;5.35;;;;;;;15.05;75.75;101089.20;1779293;79;25751;-77
2021/08/10 01:06:14;;;;;;;9.95;5.85;;;;;;;15.03;75.84;101088.06;1745192;80;25782;-77
2021/08/10 01:09:05;;;;;;;8.50;5.60;;;;;;;15.00;75.88;101089.80;1772369;79;25794;-78
2021/08/10 01:12:07;;;;;;;12.43;6.17;;;;;;;14.99;75.85;101085.42;1777539;79;25770;-78
2021/08/10 01:14:42;;;;;;;16.85;6.87;;;;;;;14.96;75.74;101082.31;1733881;79;27230;-77
2021/08/10 01:17:26;;;;;;;8.83;6.30;;;;;;;14.91;75.73;101080.73;1765587;80;25770;-78
2021/08/10 01:20:26;;;;;;;12.43;6.85;;;;;;;14.90;75.87;101079.92;1757600;80;25820;-77
2021/08/10 01:22:55;;;;;;;14.18;6.87;;;;;;;14.89;76.01;101075.55;1770271;79;26546;-78
2021/08/10 01:25:56;;;;;;;12.80;6.53;;;;;;;14.85;75.91;101076.16;1714525;79;25950;-77
2021/08/10 01:28:54;;;;;;;8.85;6.30;;;;;;;14.82;76.02;101076.58;1775734;79;28290;-77
2021/08/10 01:31:28;;;;;;;9.28;6.42;;;;;;;14.78;76.04;101081.52;1758376;80;26549;-77
2021/08/10 01:34:05;;;;;;;10.08;6.83;;;;;;;14.74;76.00;101074.88;1755017;79;25694;-77
2021/08/10 01:36:36;;;;;;;7.80;5.80;;;;;;;14.68;76.06;101072.48;1741265;80;26617;-77
2021/08/10 01:39:04;;;;;;;;;;;;;;;14.63;76.18;101078.15;1759946;80;26039;-78
2021/08/10 01:41:34;;;;;;;9.80;5.33;;;;;;;14.61;76.53;101083.75;1773692;79;27466;-77
2021/08/10 01:44:02;;;;;;;7.60;5.35;;;;;;;14.55;76.43;101086.42;1740183;79;25695;-77
2021/08/10 01:46:31;;;;;;;8.88;6.12;;;;;;;14.55;76.52;101087.77;1726346;80;25910;-78
2021/08/10 01:49:00;;;;;;;10.60;6.30;;;;;;;14.52;76.73;101083.59;1766295;79;26599;-77
2021/08/10 01:51:30;;;;;;;10.43;6.28;;;;;;;14.52;76.65;101087.64;1729665;80;25820;-77
2021/08/10 01:54:02;;;;;;;8.05;5.22;;;;;;;14.53;76.52;101081.23;1743937;80;27892;-77
2021/08/10 01:56:31;;;;;;;10.65;5.70;;;;;;;14.53;76.56;101081.74;1727427;79;25747;-77
2021/08/10 01:59:02;;;;;;;8.00;5.83;;;;;;;14.52;76.59;101083.59;1782548;79;25978;-77
2021/08/10 02:01:31;;;;;;;9.63;5.62;;;;;;;14.48;76.54;101080.99;1720420;79;25920;-77
2021/08/10 02:03:59;;;;;;;9.60;6.00;;;;;;;14.44;76.43;101074.85;1747391;81;26690;-78
2021/08/10 02:06:28;;;;;;;9.88;5.72;;;;;;;14.41;76.46;101076.62;1708176;79;28206;-77
2021/08/10 02:09:00;;;;;;;7.60;5.10;;;;;;;14.38;76.48;101072.96;1768107;80;26139;-77
2021/08/10 02:11:29;;;;;;;13.32;5.50;;;;;;;14.36;76.40;101077.22;1764642;78;26481;-77
2021/08/10 02:14:00;;;;;;;10.75;5.45;;;;;;;14.33;76.44;101068.67;1737110;80;25782;-78
2021/08/10 02:16:31;;;;;;;11.48;5.80;;;;;;;14.29;76.52;101071.45;1685135;80;26017;-78
2021/08/10 02:18:59;;;;;;;8.03;5.33;;;;;;;14.22;76.55;101071.38;1765303;80;27470;-78
2021/08/10 02:21:43;;;;;;;8.50;4.87;;;;;;;14.19;76.62;101070.96;1739662;80;26031;-78
2021/08/10 02:24:24;;;;;;;8.55;5.58;;;;;;;14.17;76.71;101069.83;1772176;79;26172;-77
2021/08/10 02:27:08;;;;;;;7.80;5.15;;;;;;;14.13;76.86;101073.95;1726852;79;25898;-77
2021/08/10 02:29:41;;;;;;;7.78;5.53;;;;;;;14.07;76.88;101069.33;1738496;81;25907;-78
2021/08/10 02:32:13;;;;;;;8.55;5.22;;;;;;;14.04;76.94;101071.59;1780218;79;27450;-77
2021/08/10 02:34:43;;;;;;;7.20;5.30;;;;;;;14.01;77.04;101070.66;1777637;79;25739;-77
2021/08/10 02:37:15;;;;;;;9.33;5.55;;;;;;;13.99;77.16;101070.84;1701468;80;25890;-78
2021/08/10 02:39:47;;;;;;;13.72;6.28;;;;;;;14.01;77.35;101063.39;1753803;79;25934;-77
2021/08/10 02:42:18;;;;;;;13.68;6.55;;;;;;;14.02;77.39;101060.19;1766779;79;26128;-78
2021/08/10 02:44:48;;;;;;;9.78;5.97;;;;;;;14.01;77.47;101051.81;1685160;79;28347;-78
2021/08/10 02:47:19;;;;;;;10.60;6.00;;;;;;;13.99;77.52;101051.98;1747611;80;26458;-77
2021/08/10 02:49:46;;;;;;;10.32;6.40;;;;;;;13.99;77.52;101060.56;1749843;79;25879;-77
2021/08/10 02:52:14;;;;;;;9.35;5.72;;;;;;;13.99;77.67;101057.87;1746914;80;25740;-78
2021/08/10 02:54:41;;;;;;;9.60;5.80;;;;;;;;;;1700655;80;25610;-78
2021/08/10 02:57:26;;;;;;;10.63;5.70;;;;;;;13.89;77.44;101059.59;1757503;80;28198;-77
2021/08/10 03:00:06;;;;;;;11.50;5.92;;;;;;;13.84;77.58;101052.61;1765202;79;25794;-77
2021/08/10 03:02:42;;;;;;;13.70;6.97;;;;;;;13.83;77.61;101061.73;1702510;82;25334;-78
2021/08/10 03:05:13;;;;;;;9.35;6.03;;;;;;;13.86;77.65;101055.42;1739862;79;26514;-77
2021/08/10 03:08:00;;;;;;;11.88;6.58;;;;;;;13.86;77.57;101054.59;1719349;81;25794;-78
2021/08/10 03:10:34;;;;;;;9.65;5.85;;;;;;;13.83;77.50;101058.53;1722237;82;28170;-78
2021/08/10 03:13:06;;;;;;;10.18;6.17;;;;;;;13.81;77.62;101060.55;1714681;81;25843;-77
2021/08/10 03:15:38;;;;;;;11.03;5.85;;;;;;;13.81;77.77;101063.25;1756597;80;25757;-78
2021/08/10 03:18:12;;;;;;;11.43;6.35;;;;;;;13.81;77.93;101065.14;1699730;81;26441;-78
2021/08/10 03:20:43;;;;;;;10.43;6.00;;;;;;;13.78;77.97;101058.78;1736153;79;25293;-78
2021/08/10 03:23:17;;;;;;;11.10;5.70;;;;;;;13.78;78.09;101060.13;1725187;81;27366;-78
2021/08/10 03:25:46;;;;;;;8.30;5.65;;;;;;;13.73;77.94;101062.56;1729726;79;27278;-78
2021/08/10 03:28:15;;;;;;;13.55;6.50;;;;;;;13.69;77.96;101066.17;1714631;79;25913;-78
2021/08/10 03:30:42;;;;;;;9.75;5.37;;;;;;;13.65;78.03;101064.91;1753555;79;25873;-77
2021/08/10 03:33:10;;;;;;;11.05;5.87;;;;;;;13.66;78.12;101067.93;1733470;79;25855;-77
2021/08/10 03:35:38;;;;;;;6.55;4.90;;;;;;;13.66;78.14;101069.78;1700535;81;28125;-77
2021/08/10 03:38:08;;;;;;;6.10;4.72;;;;;;;13.63;78.14;101072.34;1757340;79;25703;-78
2021/08/10 03:40:38;;;;;;;7.85;4.80;;;;;;;13.61;78.13;101072.22;1773082;79;25275;-77
2021/08/10 03:43:06;;;;;;;8.18;4.80;;;;;;;13.56;78.06;101070.61;1734240;79;26683;-77
2021/08/10 03:45:35;;;;;;;8.00;4.58;;;;;;;13.47;78.06;101067.22;1720289;81;25844;-77
2021/08/10 03:48:03;;;;;;;6.83;3.90;;;;;;;13.39;78.09;101065.18;1712221;81;27578;-77
2021/08/10 03:50:32;;;;;;;6.95;4.20;;;;;;;13.32;78.30;101062.46;1767983;79;25994;-77
2021/08/10 03:53:00;;;;;;;8.88;4.08;;;;;;;13.29;78.47;101060.65;1744698;79;25842;-77
2021/08/10 03:55:29;;;;;;;6.50;4.45;;;;;;;13.30;78.56;101060.98;1725501;79;26592;-77
2021/08/10 03:57:57;;;;;;;7.80;4.95;;;;;;;13.32;78.67;101056.24;1726344;80;25341;-77
2021/08/10 04:00:26;;;;;;;11.85;4.80;;;;;;;13.31;78.55;101051.36;1767816;79;27416;-78
2021/08/10 04:02:56;;;;;;;6.03;4.12;;;;;;;13.32;78.82;101051.70;1695673;82;25802;-78
2021/08/10 04:05:25;;;;;;;7.40;4.92;;;;;;;13.35;78.95;101051.80;1704625;80;25832;-78
2021/08/10 04:07:54;;;;;;;7.95;4.97;;;;;;;13.37;78.97;101057.81;1726352;80;25819;-78
2021/08/10 04:10:21;;;;;;;6.62;4.97;;;;;;;13.41;79.07;101052.39;1724517;80;26190;-78
2021/08/10 04:12:50;;;;;;;8.18;4.75;;;;;;;13.45;79.26;101056.36;1765748;79;27176;-78
2021/08/10 04:15:17;;;;;;;10.85;4.50;;;;;;;13.46;79.45;101058.01;1754103;79;26072;-78
2021/08/10 04:17:46;;;;;;;10.28;5.67;;;;;;;13.42;79.37;101056.23;1738563;79;25852;-77
2021/08/10 04:20:13;;;;;;;7.97;4.62;;;;;;;13.40;79.44;101056.94;1745349;80;26416;-78
2021/08/10 04:22:41;;;;;;;7.42;4.42;;;;;;;13.42;79.64;101056.73;1745946;79;26514;-77
2021/08/10 04:25:10;;;;;;;9.30;5.00;;;;;;;13.45;79.87;101057.17;1747865;80;27522;-78
2021/08/10 04:27:39;;;;;;;7.17;4.28;;;;;;;13.49;80.13;101063.02;1736996;81;25735;-78
2021/08/10 04:30:06;;;;;;;6.62;3.67;;;;;;;13.54;80.37;101053.32;1739012;80;25813;-78
2021/08/10 04:32:33;;;;;;;8.80;4.58;;;;;;;13.57;80.52;101060.17;1742440;79;25695;-78
2021/08/10 04:35:02;;;;;;;6.62;4.62;;;;;;;13.63;80.60;101056.70;1727289;80;25741;-78
2021/08/10 04:37:29;;;;;;;10.55;4.53;;;;;;;13.70;80.89;101053.05;1705011;79;27515;-78
2021/08/10 04:39:58;;;;;;;6.78;4.60;;;;;;;13.77;81.05;101063.33;1747154;80;25331;-77
2021/08/10 04:42:43;;;;;;;7.30;4.65;;;;;;;13.83;81.27;101058.53;1725065;80;25888;-78
2021/08/10 04:45:11;;;;;;;7.42;4.90;;;;;;;13.90;81.54;101062.08;1718390;79;25874;-78
2021/08/10 04:47:39;;;;;;;7.85;4.92;;;;;;;13.97;81.63;101061.28;1740315;79;25856;-77
2021/08/10 04:50:07;;;;;;;9.03;5.00;;;;;;;14.04;81.68;101067.05;1772412;79;27515;-78
2021/08/10 04:52:34;;;;;;;11.03;5.50;;;;;;;14.13;81.80;101071.76;1732196;79;25853;-77
2021/08/10 04:55:03;;;;;;;7.55;5.17;;;;;;;14.21;81.92;101072.44;1685287;82;25864;-77
2021/08/10 04:57:30;;;;;;;10.35;5.53;;;;;;;14.30;82.20;101068.58;1744950;80;25914;-77
2021/08/10 04:59:58;;;;;;;7.33;5.42;;;;;;;14.39;82.45;101067.36;1795414;79;25817;-78
2021/08/10 05:02:27;;;;;;;8.75;5.45;;;;;;;14.50;82.59;101070.00;1724213;80;26701;-78
2021/08/10 05:04:54;;;;;;;9.30;6.10;;;;;;;14.60;82.86;101067.78;1726984;80;26138;-78
2021/08/10 05:07:21;;;;;;;9.15;5.28;;;;;;;14.70;82.98;101058.79;1709328;79;26453;-77
2021/08/10 05:09:48;;;;;;;10.68;5.92;;;;;;;14.81;83.04;101062.77;1772695;79;25939;-78
2021/08/10 05:12:15;;;;;;;12.20;6.72;;;;;;;14.91;83.20;101057.30;1721291;81;25757;-78
2021/08/10 05:14:42;;;;;;;9.43;6.55;;;;;;;15.01;83.38;101056.38;1723972;81;27487;-78
2021/08/10 05:17:09;;;;;;;11.55;6.42;;;;;;;15.12;83.56;101065.22;1717447;79;25955;-78
2021/08/10 05:19:37;;;;;;;8.93;5.60;;;;;;;15.23;83.96;101058.39;1766435;79;25801;-78
2021/08/10 05:22:04;;;;;;;10.80;6.33;;;;;;;15.33;84.10;101056.14;1696997;82;25989;-78
2021/08/10 05:24:33;;;;;;;9.30;6.37;;;;;;;15.43;84.11;101056.07;1676255;81;25763;-78
2021/08/10 05:27:01;;;;;;;10.15;6.92;;;;;;;15.56;84.21;101057.94;1741972;79;28203;-78
2021/08/10 05:29:29;;;;;;;9.20;6.78;;;;;;;15.66;84.46;101049.40;1773517;79;25882;-78
2021/08/10 05:31:57;;;;;;;10.93;7.10;;;;;;;15.78;84.67;101050.45;1730103;80;25809;-78
2021/08/10 05:34:25;;;;;;;14.58;8.15;;;;;;;15.89;84.71;101057.37;1708204;80;26516;-78
2021/08/10 05:36:52;;;;;;;11.50;7.60;;;;;;;16.01;84.52;101060.28;1733579;79;25828;-78
2021/08/10 05:39:19;;;;;;;10.38;6.78;;;;;;;16.11;84.52;101060.16;1736688;79;28241;-78
2021/08/10 05:41:47;;;;;;;9.93;6.50;;;;;;;16.22;84.49;101060.02;1723841;79;25806;-78
2021/08/10 05:44:16;;;;;;;14.10;7.10;;;;;;;16.35;84.33;101064.55;1713449;79;26323;-78
2021/08/10 05:46:45;;;;;;;8.97;6.23;;;;;;;16.48;84.57;101061.80;1739446;80;25806;-78
2021/08/10 05:49:14;;;;;;;9.40;6.30;;;;;;;16.59;84.35;101059.31;1768290;80;25986;-78
2021/08/10 05:51:41;;;;;;;7.55;5.62;;;;;;;16.72;84.41;101047.59;1729588;79;27373;-78
2021/08/10 05:54:12;;;;;;;9.38;5.83;;;;;;;16.86;84.68;101049.17;1720687;81;25805;-78
2021/08/10 05:56:37;;;;;;;7.55;5.45;;;;;;;17.03;84.59;101054.89;1741566;79;25963;-78
2021/08/10 05:59:04;;;;;;;6.87;5.40;;;;;;;17.17;84.57;101051.88;1773747;80;26378;-78
2021/08/10 06:01:38;;;;;;;7.00;4.87;;;;;;;17.31;84.24;101061.59;1734403;79;26482;-78
2021/08/10 06:04:07;;;;;;;10.55;4.78;;;;;;;17.39;83.61;101060.47;1747517;80;27539;-78
2021/08/10 06:06:34;;;;;;;5.55;4.30;;;;;;;17.44;83.27;101055.23;1724340;80;26006;-78
2021/08/10 06:09:04;;;;;;;7.53;5.22;;;;;;;17.49;83.86;101053.52;1735192;79;25769;-78
2021/08/10 06:11:33;;;;;;;10.85;5.65;;;;;;;17.55;84.25;101046.44;1783496;79;26728;-78
2021/08/10 06:14:01;;;;;;;6.00;4.42;;;;;;;17.68;83.96;101053.09;1774709;79;26198;-78
2021/08/10 06:16:28;;;;;;;4.83;4.25;;;;;;;17.71;84.00;101052.63;1690204;82;27533;-78
2021/08/10 06:18:57;;;;;;;6.90;4.90;;;;;;;17.78;83.67;101052.58;1692051;79;25764;-77
2021/08/10 06:21:25;;;;;;;8.93;4.62;;;;;;;17.88;83.32;101046.95;1773778;80;25831;-78
2021/08/10 06:23:53;;;;;;;5.67;4.72;;;;;;;18.03;83.05;101050.65;1761086;80;25819;-78
2021/08/10 06:26:21;;;;;;;8.88;4.15;;;;;;;18.17;82.83;101058.45;1732448;81;26058;-78
2021/08/10 06:28:48;;;;;;;5.72;3.70;;;;;;;18.32;81.28;101055.36;1711746;81;28174;-78
2021/08/10 06:31:16;;;;;;;4.35;3.67;;;;;;;18.45;80.02;101049.81;1767539;79;25826;-78
2021/08/10 06:33:44;;;;;;;4.92;3.42;;;;;;;18.58;79.94;101048.30;1773837;80;25899;-78
2021/08/10 06:36:16;;;;;;;8.20;3.80;;;;;;;18.72;79.63;101047.58;1724093;80;26038;-78
2021/08/10 06:38:43;;;;;;;6.47;3.20;;;;;;;18.87;78.96;101049.36;1671813;79;25943;-78
2021/08/10 06:41:11;;;;;;;7.45;3.77;;;;;;;19.00;78.78;101042.39;1783041;79;27469;-78
2021/08/10 06:43:38;;;;;;;5.33;3.98;;;;;;;19.15;79.15;101035.48;1773758;79;25892;-78
2021/08/10 06:46:16;;;;;;;6.92;3.45;;;;;;;19.31;78.26;101033.96;1729236;79;25942;-78
2021/08/10 06:48:43;;;;;;;5.47;3.58;;;;;;;19.46;77.60;101026.78;1749976;79;26468;-78
2021/08/10 06:51:10;;;;;;;5.03;3.45;;;;;;;19.58;77.58;101028.97;1775051;79;25732;-78
2021/08/10 06:53:37;;;;;;;4.10;3.15;;;;;;;19.72;77.63;101032.58;1779846;78;28305;-78
2021/08/10 06:56:04;;;;;;;6.95;3.12;;;;;;;19.85;77.05;101026.90;1718566;78;25851;-78
2021/08/10 06:58:32;;;;;;;8.55;3.45;;;;;;;20.00;76.21;101022.34;1710606;79;25804;-78
2021/08/10 07:01:00;;;;;;;4.62;2.77;;;;;;;20.12;75.54;101023.17;1776853;79;26392;-78
2021/08/10 07:03:27;;;;;;;5.15;2.77;;;;;;;20.27;74.76;101026.77;1777018;79;25988;-78
2021/08/10 07:05:54;;;;;;;7.92;3.08;;;;;;;20.40;73.97;101032.76;1697192;79;27598;-79
2021/08/10 07:08:23;;;;;;;3.80;2.67;;;;;;;20.54;73.07;101031.96;1673814;81;25852;-78
2021/08/10 07:10:50;;;;;;;4.78;2.60;;;;;;;20.65;72.28;101030.58;1795452;78;25744;-78
2021/08/10 07:13:17;;;;;;;4.80;2.40;;;;;;;20.78;72.10;101021.81;1790021;79;25820;-78
2021/08/10 07:15:44;;;;;;;3.90;2.47;;;;;;;20.89;71.51;101019.58;1729316;81;25961;-78
2021/08/10 07:18:13;;;;;;;4.85;2.10;;;;;;;21.03;70.67;101023.15;1672206;81;28261;-78
2021/08/10 07:20:41;;;;;;;5.87;2.00;;;;;;;21.15;70.20;101017.09;1793170;78;25682;-77
2021/08/10 07:23:09;;;;;;;3.67;2.30;;;;;;;21.28;70.23;101015.94;1789707;79;25800;-78
2021/08/10 07:25:38;;;;;;;4.30;1.92;;;;;;;21.37;69.26;101012.57;1729702;81;26003;-78
2021/08/10 07:28:05;;;;;;;6.28;2.17;;;;;;;21.49;68.60;101017.39;1717200;81;25843;-78
2021/08/10 07:30:34;;;;;;;2.58;1.95;;;;;;;21.62;68.93;101016.23;1719681;81;27561;-78
2021/08/10 07:33:01;;;;;;;3.37;1.95;;;;;;;21.73;69.25;101015.31;1780926;79;25785;-78
2021/08/10 07:35:29;;;;;;;2.33;2.00;;;;;;;21.84;68.81;101015.80;1723361;79;26286;-77
2021/08/10 07:37:57;;;;;;;3.45;1.90;;;;;;;21.95;67.74;101012.67;1723902;79;25930;-77
2021/08/10 07:40:25;;;;;;;5.95;1.98;;;;;;;22.03;66.69;101013.06;1767200;79;26960;-78
2021/08/10 07:42:52;;;;;;;3.83;1.87;;;;;;;22.11;66.17;101002.27;1790239;79;28286;-78
2021/08/10 07:45:20;;;;;;;3.27;1.85;;;;;;;22.20;66.37;101008.91;1743260;79;25905;-79
2021/08/10 07:47:47;;;;;;;5.97;2.45;;;;;;;22.31;66.01;101008.50;1732143;79;25821;-77
2021/08/10 07:50:16;;;;;;;3.12;1.82;;;;;;;22.41;66.66;101005.92;1763473;79;26702;-77
2021/08/10 07:52:47;;;;;;;4.90;1.90;;;;;;;22.52;66.88;101009.07;1764556;79;25759;-77
2021/08/10 07:55:12;;;;;;;6.45;1.90;;;;;;;22.61;65.49;101009.73;1709638;79;28183;-77
2021/08/10 07:57:43;;;;;;;3.00;1.70;;;;;;;22.68;64.52;101013.64;1714716;79;25870;-78
2021/08/10 08:00:12;;;;;;;3.92;1.87;;;;;;;22.75;64.03;101005.52;1770686;79;25795;-78
2021/08/10 08:02:43;;;;;;;3.98;1.90;;;;;;;22.84;63.05;101009.98;1738187;81;26905;-77
2021/08/10 08:05:11;;;;;;;5.40;1.70;;;;;;;22.93;63.10;101005.70;1741348;79;25854;-78
2021/08/10 08:07:38;;;;;;;3.85;1.80;;;;;;;23.01;62.54;101012.89;1721689;80;28015;-78
2021/08/10 08:10:08;;;;;;;3.90;1.75;;;;;;;23.12;61.79;101011.09;1760230;80;25894;-78
2021/08/10 08:12:36;;;;;;;3.95;1.42;;;;;;;23.21;61.34;101005.97;1771904;79;25745;-78
2021/08/10 08:15:04;;;;;;;5.83;1.90;;;;;;;23.27;60.87;101008.48;1664976;81;25900;-78
2021/08/10 08:17:32;;;;;;;3.47;1.67;;;;;;;23.36;61.51;101012.97;1733471;80;25891;-78
2021/08/10 08:19:59;;;;;;;2.77;1.45;;;;;;;23.43;61.43;101008.11;1780046;79;28246;-77
2021/08/10 08:22:26;;;;;;;3.20;1.75;;;;;;;23.52;60.37;101010.66;1766526;79;25309;-78
2021/08/10 08:24:53;;;;;;;4.78;1.52;;;;;;;23.62;60.91;101013.45;1708896;79;25856;-78
2021/08/10 08:27:20;;;;;;;2.25;1.45;;;;;;;23.70;60.76;101012.96;1720758;80;26445;-78
2021/08/10 08:29:47;;;;;;;5.70;1.77;;;;;;;23.78;60.54;101017.13;1738592;79;25826;-77
2021/08/10 08:32:14;;;;;;;2.00;1.45;;;;;;;23.86;58.82;101018.83;1771318;80;28111;-77
2021/08/10 08:34:41;;;;;;;4.45;1.20;;;;;;;23.92;58.38;101021.88;1700356;80;25751;-77
2021/08/10 08:37:08;;;;;;;2.25;1.22;;;;;;;23.95;57.80;101019.95;1728207;79;26009;-78
2021/08/10 08:39:35;;;;;;;1.75;1.30;;;;;;;23.97;58.27;101017.81;1780996;79;25819;-77
2021/08/10 08:42:03;;;;;;;2.35;1.50;;;;;;;24.04;58.53;101021.66;1722605;81;25877;-77
2021/08/10 08:44:35;;;;;;;6.40;1.87;;;;;;;24.11;58.17;101019.55;1706157;81;27443;-78
2021/08/10 08:47:06;;;;;;;3.72;1.55;;;;;;;24.19;59.05;101021.77;1719910;81;25830;-78
2021/08/10 08:49:35;;;;;;;;;;;;;;;24.25;58.61;101017.42;1747390;81;25883;-78
2021/08/10 08:52:07;;;;;;;5.28;1.35;;;;;;;24.32;54.65;101015.81;1747720;81;26409;-78
2021/08/10 08:54:34;;;;;;;3.08;1.30;;;;;;;24.33;56.34;101016.11;1744970;80;27532;-78
2021/08/10 08:57:02;;;;;;;2.87;1.22;;;;;;;24.36;56.76;101015.02;1705557;81;28151;-78
2021/08/10 08:59:29;;;;;;;3.05;1.60;;;;;;;24.36;56.23;101011.44;1713650;82;25922;-78
2021/08/10 09:01:56;;;;;;;4.62;1.80;;;;;;;24.32;55.51;101005.69;1742372;81;25753;-76
2021/08/10 09:04:23;;;;;;;4.00;1.15;;;;;;;24.36;55.67;101005.97;1692700;81;26468;-78
2021/08/10 09:06:55;;;;;;;4.40;1.20;;;;;;;24.44;54.30;101005.48;1707822;80;25787;-78
2021/08/10 09:09:26;;;;;;;1.53;1.03;;;;;;;24.57;54.73;101006.89;1757172;80;27544;-78
2021/08/10 09:12:01;;;;;;;2.08;1.35;;;;;;;24.68;53.97;101004.46;1760800;80;25829;-78
2021/08/10 09:14:52;;;;;;;2.02;1.10;;;;;;;24.82;54.47;100996.02;1738186;80;25862;-78
2021/08/10 09:17:24;;;;;;;3.33;1.22;;;;;;;24.93;54.99;100994.41;1712608;80;26676;-78
2021/08/10 09:20:03;;;;;;;4.70;1.30;;;;;;;24.97;54.10;100993.31;1737674;80;26051;-78
2021/08/10 09:22:33;;;;;;;7.28;1.40;;;;;;;25.02;53.34;100996.06;1762939;80;27735;-78
2021/08/10 09:25:13;;;;;;;3.27;1.47;;;;;;;25.02;53.38;100990.59;1716261;80;25882;-79
2021/08/10 09:27:41;;;;;;;6.70;1.47;;;;;;;25.03;53.81;100993.05;1702460;80;25904;-78
2021/08/10 09:30:17;;;;;;;2.10;1.32;;;;;;;25.00;53.65;100981.81;1759888;80;26476;-78
2021/08/10 09:33:00;;;;;;;2.75;1.42;;;;;;;24.96;52.32;100982.05;1762542;79;26139;-78
2021/08/10 09:35:36;;;;;;;2.58;1.27;;;;;;;24.93;53.22;100978.50;1741418;80;27462;-78
2021/08/10 09:38:20;;;;;;;3.72;2.30;;;;;;;24.91;52.52;100979.33;1688953;80;25821;-78
2021/08/10 09:40:53;;;;;;;3.27;1.75;;;;;;;24.96;53.72;100974.66;1766940;78;25636;-78
2021/08/10 09:43:26;;;;;;;2.70;1.50;;;;;;;25.12;54.26;100971.39;1741191;80;26947;-78
2021/08/10 09:46:19;;;;;;;1.82;1.60;;;;;;;25.23;54.03;100966.20;1726125;80;25808;-78
2021/08/10 09:48:54;;;;;;;5.03;1.55;;;;;;;25.35;53.36;100959.88;1718378;81;27329;-78
2021/08/10 09:51:28;;;;;;;2.85;1.35;;;;;;;25.49;53.00;100953.31;1732760;80;25945;-78
2021/08/10 09:54:07;;;;;;;4.12;1.95;;;;;;;25.56;53.07;100953.83;1767481;80;26513;-78
2021/08/10 09:56:55;;;;;;;6.10;2.80;;;;;;;25.61;51.75;100955.20;1770817;79;25870;-78
2021/08/10 09:59:27;;;;;;;4.58;3.00;;;;;;;25.60;50.89;100952.20;1743748;80;25766;-78
2021/08/10 10:02:03;;;;;;;1.95;1.70;;;;;;;25.61;50.62;100950.55;1742850;80;27449;-78
2021/08/10 10:04:30;;;;;;;3.98;1.72;;;;;;;25.65;50.22;100947.52;1766824;80;26032;-78
2021/08/10 10:07:11;;;;;;;2.90;1.45;;;;;;;25.70;50.31;100949.44;1686911;82;25844;-78
2021/08/10 10:09:44;;;;;;;7.10;1.10;;;;;;;25.76;50.60;100938.71;1730724;79;25778;-78
2021/08/10 10:12:16;;;;;;;1.60;1.32;;;;;;;25.82;50.95;100939.79;1755556;80;25887;-78
2021/08/10 10:14:46;;;;;;;2.65;1.35;;;;;;;25.81;50.97;100943.62;1793662;78;28315;-78
2021/08/10 10:17:14;;;;;;;3.47;1.30;;;;;;;25.76;50.61;100940.08;1693198;80;25854;-78
2021/08/10 10:19:44;;;;;;;2.65;1.52;;;;;;;25.74;50.61;100940.91;1676438;82;25892;-78
2021/08/10 10:22:14;;;;;;;3.50;1.67;;;;;;;25.75;50.62;100934.31;1745509;79;25921;-78
2021/08/10 10:24:50;;;;;;;4.92;1.60;;;;;;;25.75;50.67;100942.00;1767945;79;25901;-78
2021/08/10 10:27:18;;;;;;;4.30;1.67;;;;;;;25.79;50.74;100935.42;1741679;80;27351;-78
2021/08/10 10:29:48;;;;;;;5.17;1.87;;;;;;;25.86;50.00;100934.55;1681982;83;25977;-79
2021/08/10 10:32:21;;;;;;;2.50;1.65;;;;;;;25.92;50.85;100928.77;1743883;80;34937;-78
2021/08/10 10:34:48;;;;;;;2.25;1.22;;;;;;;25.93;50.14;100933.17;1752343;80;25824;-78
2021/08/10 10:37:22;;;;;;;2.65;1.60;;;;;;;25.95;50.32;100937.00;1714044;80;25878;-78
2021/08/10 10:40:02;;;;;;;2.83;1.30;;;;;;;25.94;50.62;100933.42;1741263;80;27499;-78
2021/08/10 10:42:30;;;;;;;1.80;1.40;;;;;;;25.92;50.35;100934.26;1725222;80;25785;-78
2021/08/10 10:44:57;;;;;;;3.35;1.80;;;;;;;25.90;50.98;100930.97;1762311;80;25800;-78
2021/08/10 10:47:33;;;;;;;3.12;1.57;;;;;;;25.89;49.92;100933.47;1708029;80;26451;-78
2021/08/10 10:50:05;;;;;;;8.60;3.17;;;;;;;25.88;49.06;100933.72;1774094;79;26469;-78
2021/08/10 10:52:34;;;;;;;7.80;2.20;;;;;;;25.90;50.38;100929.60;1743964;80;27473;-78
2021/08/10 10:55:05;;;;;;;2.45;1.40;;;;;;;25.94;51.17;100922.45;1761895;79;25903;-78
2021/08/10 10:57:35;;;;;;;6.00;2.40;;;;;;;25.97;49.92;100913.66;1670809;80;26083;-78
2021/08/10 11:00:12;;;;;;;4.12;1.90;;;;;;;26.09;49.95;100911.19;1725248;80;25891;-78
2021/08/10 11:02:40;;;;;;;59.00;23.45;;;;;;;26.15;49.28;100915.00;1778112;79;25750;-78
2021/08/10 11:05:22;;;;;;;6.78;3.40;;;;;;;26.26;49.53;100913.82;1756088;80;27609;-78
2021/08/10 11:07:55;;;;;;;41.50;26.85;;;;;;;26.36;49.01;100900.59;1707003;79;25882;-79
2021/08/10 11:10:43;;;;;;;5.40;2.15;;;;;;;26.49;48.30;100893.94;1715536;81;25800;-79
2021/08/10 11:13:25;;;;;;;2.85;1.60;;;;;;;26.57;47.26;100891.95;1741731;81;26428;-78
2021/08/10 11:15:55;;;;;;;3.37;1.85;;;;;;;26.59;47.21;100883.41;1785256;79;25841;-78
2021/08/10 11:18:25;;;;;;;;;;;;;;;26.65;47.29;100883.09;1726328;80;27369;-78
2021/08/10 11:21:04;;;;;;;1.77;1.40;;;;;;;26.71;46.94;100877.81;1746906;79;25270;-78
2021/08/10 11:23:36;;;;;;;3.98;1.55;;;;;;;26.71;47.33;100879.73;1781230;79;25269;-78
2021/08/10 11:26:09;;;;;;;4.45;1.22;;;;;;;26.73;46.62;100879.75;1729217;79;25820;-78
2021/08/10 11:28:51;;;;;;;1.80;1.47;;;;;;;26.71;46.48;100877.81;1728060;79;25800;-78
2021/08/10 11:31:38;;;;;;;2.42;1.47;;;;;;;26.69;46.22;100874.53;1742455;80;27555;-78
2021/08/10 11:34:11;;;;;;;2.47;1.30;;;;;;;26.70;46.43;100870.70;1750245;80;25753;-78
2021/08/10 11:36:38;;;;;;;4.60;1.35;;;;;;;26.74;47.96;100859.97;1754572;79;25814;-78
2021/08/10 11:39:07;;;;;;;2.90;1.47;;;;;;;26.74;46.09;100852.55;1725444;79;26426;-78
2021/08/10 11:41:37;;;;;;;2.67;1.72;;;;;;;26.74;46.66;100848.97;1720903;81;25916;-78